sensor_id;sensor_type;location;lat;lon;timestamp;P1;durP1;ratioP1;P2;durP2;ratioP2
5754;SDS011;2902;42.130;24.732;2022-08-19T00:02:15;6.80;;;6.17;;
5754;SDS011;2902;42.130;24.732;2022-08-19T00:04:42;7.93;;;6.53;;
5754;SDS011;2902;42.130;24.732;2022-08-19T00:07:11;7.57;;;6.17;;
5754;SDS011;2902;42.130;24.732;2022-08-19T00:09:38;7.07;;;6.23;;
5754;SDS011;2902;42.130;24.732;2022-08-19T00:12:05;6.70;;;6.30;;
5754;SDS011;2902;42.130;24.732;2022-08-19T00:14:32;6.67;;;6.27;;
5754;SDS011;2902;42.130;24.732;2022-08-19T00:17:01;6.53;;;6.03;;
5754;SDS011;2902;42.130;24.732;2022-08-19T00:19:28;7.83;;;7.00;;
5754;SDS011;2902;42.130;24.732;2022-08-19T00:21:56;7.33;;;6.73;;
5754;SDS011;2902;42.130;24.732;2022-08-19T00:24:23;6.27;;;5.87;;
5754;SDS011;2902;42.130;24.732;2022-08-19T00:26:52;6.97;;;6.40;;
5754;SDS011;2902;42.130;24.732;2022-08-19T00:29:20;6.90;;;6.23;;
5754;SDS011;2902;42.130;24.732;2022-08-19T00:31:48;6.97;;;6.27;;
5754;SDS011;2902;42.130;24.732;2022-08-19T00:34:19;7.27;;;6.67;;
5754;SDS011;2902;42.130;24.732;2022-08-19T00:36:48;6.73;;;6.13;;
5754;SDS011;2902;42.130;24.732;2022-08-19T00:39:15;6.80;;;6.23;;
5754;SDS011;2902;42.130;24.732;2022-08-19T00:41:43;6.47;;;6.07;;
5754;SDS011;2902;42.130;24.732;2022-08-19T00:44:12;7.87;;;6.33;;
5754;SDS011;2902;42.130;24.732;2022-08-19T00:46:43;8.37;;;7.57;;
5754;SDS011;2902;42.130;24.732;2022-08-19T00:49:12;6.73;;;6.23;;
5754;SDS011;2902;42.130;24.732;2022-08-19T00:51:42;8.17;;;6.23;;
5754;SDS011;2902;42.130;24.732;2022-08-19T00:54:11;6.10;;;5.80;;
5754;SDS011;2902;42.130;24.732;2022-08-19T00:56:38;7.23;;;6.60;;
5754;SDS011;2902;42.130;24.732;2022-08-19T00:59:06;6.63;;;6.13;;
5754;SDS011;2902;42.130;24.732;2022-08-19T01:01:34;7.20;;;6.70;;
5754;SDS011;2902;42.130;24.732;2022-08-19T01:04:01;7.00;;;6.33;;
5754;SDS011;2902;42.130;24.732;2022-08-19T01:06:28;6.80;;;6.30;;
5754;SDS011;2902;42.130;24.732;2022-08-19T01:08:57;8.57;;;5.47;;
5754;SDS011;2902;42.130;24.732;2022-08-19T01:11:24;6.50;;;6.00;;
5754;SDS011;2902;42.130;24.732;2022-08-19T01:13:51;8.00;;;6.57;;
5754;SDS011;2902;42.130;24.732;2022-08-19T01:16:20;6.67;;;6.27;;
5754;SDS011;2902;42.130;24.732;2022-08-19T01:18:50;7.00;;;6.50;;
5754;SDS011;2902;42.130;24.732;2022-08-19T01:21:18;9.37;;;6.47;;
5754;SDS011;2902;42.130;24.732;2022-08-19T01:23:52;9.70;;;7.43;;
5754;SDS011;2902;42.130;24.732;2022-08-19T01:26:20;6.83;;;6.33;;
5754;SDS011;2902;42.130;24.732;2022-08-19T01:28:49;8.10;;;7.40;;
5754;SDS011;2902;42.130;24.732;2022-08-19T01:31:20;7.40;;;6.70;;
5754;SDS011;2902;42.130;24.732;2022-08-19T01:33:47;6.77;;;6.27;;
5754;SDS011;2902;42.130;24.732;2022-08-19T01:36:16;7.63;;;7.03;;
5754;SDS011;2902;42.130;24.732;2022-08-19T01:38:50;7.77;;;7.10;;
5754;SDS011;2902;42.130;24.732;2022-08-19T01:41:19;7.73;;;7.23;;
5754;SDS011;2902;42.130;24.732;2022-08-19T01:43:47;7.60;;;7.10;;
5754;SDS011;2902;42.130;24.732;2022-08-19T01:46:15;9.03;;;7.13;;
5754;SDS011;2902;42.130;24.732;2022-08-19T01:48:42;7.00;;;6.50;;
5754;SDS011;2902;42.130;24.732;2022-08-19T01:51:10;11.00;;;7.90;;
5754;SDS011;2902;42.130;24.732;2022-08-19T01:53:38;9.10;;;7.13;;
5754;SDS011;2902;42.130;24.732;2022-08-19T01:56:06;8.30;;;7.63;;
5754;SDS011;2902;42.130;24.732;2022-08-19T01:58:47;17.77;;;9.23;;
5754;SDS011;2902;42.130;24.732;2022-08-19T02:01:17;8.63;;;7.80;;
5754;SDS011;2902;42.130;24.732;2022-08-19T02:03:44;9.07;;;8.17;;
5754;SDS011;2902;42.130;24.732;2022-08-19T02:06:11;8.13;;;7.33;;
5754;SDS011;2902;42.130;24.732;2022-08-19T02:08:39;7.30;;;6.80;;
5754;SDS011;2902;42.130;24.732;2022-08-19T02:11:06;11.57;;;7.50;;
5754;SDS011;2902;42.130;24.732;2022-08-19T02:13:35;8.03;;;7.30;;
5754;SDS011;2902;42.130;24.732;2022-08-19T02:16:02;8.27;;;7.50;;
5754;SDS011;2902;42.130;24.732;2022-08-19T02:18:29;9.10;;;8.20;;
5754;SDS011;2902;42.130;24.732;2022-08-19T02:20:55;8.70;;;7.90;;
5754;SDS011;2902;42.130;24.732;2022-08-19T02:23:22;8.77;;;7.77;;
5754;SDS011;2902;42.130;24.732;2022-08-19T02:25:49;8.07;;;7.27;;
5754;SDS011;2902;42.130;24.732;2022-08-19T02:28:17;12.77;;;7.47;;
5754;SDS011;2902;42.130;24.732;2022-08-19T02:30:45;7.67;;;7.07;;
5754;SDS011;2902;42.130;24.732;2022-08-19T02:33:13;7.23;;;6.73;;
5754;SDS011;2902;42.130;24.732;2022-08-19T02:35:40;8.83;;;7.47;;
5754;SDS011;2902;42.130;24.732;2022-08-19T02:38:08;8.23;;;7.40;;
5754;SDS011;2902;42.130;24.732;2022-08-19T02:40:54;9.03;;;7.73;;
5754;SDS011;2902;42.130;24.732;2022-08-19T02:43:23;8.70;;;8.10;;
5754;SDS011;2902;42.130;24.732;2022-08-19T02:45:52;9.27;;;7.70;;
5754;SDS011;2902;42.130;24.732;2022-08-19T02:48:19;10.57;;;7.60;;
5754;SDS011;2902;42.130;24.732;2022-08-19T02:50:48;8.97;;;7.40;;
5754;SDS011;2902;42.130;24.732;2022-08-19T02:53:20;10.80;;;8.07;;
5754;SDS011;2902;42.130;24.732;2022-08-19T02:55:47;7.83;;;7.13;;
5754;SDS011;2902;42.130;24.732;2022-08-19T02:58:15;8.57;;;7.97;;
5754;SDS011;2902;42.130;24.732;2022-08-19T03:00:45;8.20;;;7.53;;
5754;SDS011;2902;42.130;24.732;2022-08-19T03:03:15;8.17;;;7.30;;
5754;SDS011;2902;42.130;24.732;2022-08-19T03:05:43;8.90;;;8.13;;
5754;SDS011;2902;42.130;24.732;2022-08-19T03:08:10;7.83;;;7.13;;
5754;SDS011;2902;42.130;24.732;2022-08-19T03:10:42;11.30;;;8.87;;
5754;SDS011;2902;42.130;24.732;2022-08-19T03:13:11;9.27;;;7.93;;
5754;SDS011;2902;42.130;24.732;2022-08-19T03:15:40;9.10;;;8.23;;
5754;SDS011;2902;42.130;24.732;2022-08-19T03:18:07;7.90;;;7.30;;
5754;SDS011;2902;42.130;24.732;2022-08-19T03:20:39;11.03;;;8.17;;
5754;SDS011;2902;42.130;24.732;2022-08-19T03:23:07;8.23;;;7.37;;
5754;SDS011;2902;42.130;24.732;2022-08-19T03:25:36;8.63;;;7.83;;
5754;SDS011;2902;42.130;24.732;2022-08-19T03:28:05;12.33;;;8.57;;
5754;SDS011;2902;42.130;24.732;2022-08-19T03:30:32;13.00;;;8.40;;
5754;SDS011;2902;42.130;24.732;2022-08-19T03:32:59;19.07;;;8.67;;
5754;SDS011;2902;42.130;24.732;2022-08-19T03:35:26;11.60;;;8.67;;
5754;SDS011;2902;42.130;24.732;2022-08-19T03:37:55;9.10;;;8.37;;
5754;SDS011;2902;42.130;24.732;2022-08-19T03:40:22;11.83;;;8.90;;
5754;SDS011;2902;42.130;24.732;2022-08-19T03:42:49;10.47;;;8.40;;
5754;SDS011;2902;42.130;24.732;2022-08-19T03:45:15;12.33;;;9.03;;
5754;SDS011;2902;42.130;24.732;2022-08-19T03:47:42;18.80;;;9.60;;
5754;SDS011;2902;42.130;24.732;2022-08-19T03:50:10;16.87;;;9.83;;
5754;SDS011;2902;42.130;24.732;2022-08-19T03:52:37;10.40;;;8.37;;
5754;SDS011;2902;42.130;24.732;2022-08-19T03:55:06;9.20;;;8.00;;
5754;SDS011;2902;42.130;24.732;2022-08-19T03:57:33;14.23;;;8.23;;
5754;SDS011;2902;42.130;24.732;2022-08-19T04:00:00;11.33;;;8.40;;
5754;SDS011;2902;42.130;24.732;2022-08-19T04:02:29;10.17;;;8.40;;
5754;SDS011;2902;42.130;24.732;2022-08-19T04:04:56;17.47;;;8.60;;
5754;SDS011;2902;42.130;24.732;2022-08-19T04:07:23;20.70;;;10.10;;
5754;SDS011;2902;42.130;24.732;2022-08-19T04:09:49;15.50;;;8.27;;
5754;SDS011;2902;42.130;24.732;2022-08-19T04:12:18;11.40;;;8.70;;
5754;SDS011;2902;42.130;24.732;2022-08-19T04:14:45;15.40;;;9.23;;
5754;SDS011;2902;42.130;24.732;2022-08-19T04:17:12;17.60;;;10.03;;
5754;SDS011;2902;42.130;24.732;2022-08-19T04:19:39;23.47;;;9.50;;
5754;SDS011;2902;42.130;24.732;2022-08-19T04:22:07;23.80;;;10.40;;
5754;SDS011;2902;42.130;24.732;2022-08-19T04:24:36;23.57;;;10.90;;
5754;SDS011;2902;42.130;24.732;2022-08-19T04:27:03;27.17;;;10.20;;
5754;SDS011;2902;42.130;24.732;2022-08-19T04:29:33;19.37;;;9.53;;
5754;SDS011;2902;42.130;24.732;2022-08-19T04:32:00;15.57;;;9.00;;
5754;SDS011;2902;42.130;24.732;2022-08-19T04:34:27;13.50;;;8.53;;
5754;SDS011;2902;42.130;24.732;2022-08-19T04:36:56;17.07;;;8.80;;
5754;SDS011;2902;42.130;24.732;2022-08-19T04:39:25;28.13;;;11.03;;
5754;SDS011;2902;42.130;24.732;2022-08-19T04:42:09;30.00;;;10.67;;
5754;SDS011;2902;42.130;24.732;2022-08-19T04:44:54;28.23;;;10.33;;
5754;SDS011;2902;42.130;24.732;2022-08-19T04:47:23;22.13;;;9.40;;
5754;SDS011;2902;42.130;24.732;2022-08-19T04:49:50;19.43;;;9.73;;
5754;SDS011;2902;42.130;24.732;2022-08-19T04:52:17;13.73;;;9.13;;
5754;SDS011;2902;42.130;24.732;2022-08-19T04:54:43;18.03;;;9.40;;
5754;SDS011;2902;42.130;24.732;2022-08-19T04:57:10;16.70;;;7.80;;
5754;SDS011;2902;42.130;24.732;2022-08-19T04:59:37;8.43;;;7.63;;
5754;SDS011;2902;42.130;24.732;2022-08-19T05:02:06;12.70;;;7.80;;
5754;SDS011;2902;42.130;24.732;2022-08-19T05:04:34;9.65;;;7.43;;
5754;SDS011;2902;42.130;24.732;2022-08-19T05:07:04;10.40;;;6.82;;
5754;SDS011;2902;42.130;24.732;2022-08-19T05:09:31;11.38;;;7.65;;
5754;SDS011;2902;42.130;24.732;2022-08-19T05:11:58;16.83;;;7.03;;
5754;SDS011;2902;42.130;24.732;2022-08-19T05:14:25;8.25;;;6.90;;
5754;SDS011;2902;42.130;24.732;2022-08-19T05:16:52;10.43;;;7.00;;
5754;SDS011;2902;42.130;24.732;2022-08-19T05:19:20;11.10;;;6.63;;
5754;SDS011;2902;42.130;24.732;2022-08-19T05:22:04;32.35;;;8.25;;
5754;SDS011;2902;42.130;24.732;2022-08-19T05:24:48;15.25;;;7.68;;
5754;SDS011;2902;42.130;24.732;2022-08-19T05:27:15;11.23;;;7.40;;
5754;SDS011;2902;42.130;24.732;2022-08-19T05:29:41;8.68;;;6.75;;
5754;SDS011;2902;42.130;24.732;2022-08-19T05:32:08;7.28;;;6.18;;
5754;SDS011;2902;42.130;24.732;2022-08-19T05:34:37;16.13;;;6.70;;
5754;SDS011;2902;42.130;24.732;2022-08-19T05:37:04;9.95;;;8.30;;
5754;SDS011;2902;42.130;24.732;2022-08-19T05:39:33;16.92;;;6.13;;
5754;SDS011;2902;42.130;24.732;2022-08-19T05:42:02;7.65;;;5.53;;
5754;SDS011;2902;42.130;24.732;2022-08-19T05:44:32;6.53;;;5.85;;
5754;SDS011;2902;42.130;24.732;2022-08-19T05:47:01;13.55;;;5.97;;
5754;SDS011;2902;42.130;24.732;2022-08-19T05:49:32;9.85;;;5.45;;
5754;SDS011;2902;42.130;24.732;2022-08-19T05:52:02;15.27;;;5.55;;
5754;SDS011;2902;42.130;24.732;2022-08-19T05:54:29;10.75;;;6.85;;
5754;SDS011;2902;42.130;24.732;2022-08-19T05:56:56;6.00;;;5.38;;
5754;SDS011;2902;42.130;24.732;2022-08-19T05:59:23;10.30;;;5.43;;
5754;SDS011;2902;42.130;24.732;2022-08-19T06:01:50;20.45;;;6.22;;
5754;SDS011;2902;42.130;24.732;2022-08-19T06:04:19;9.70;;;5.22;;
5754;SDS011;2902;42.130;24.732;2022-08-19T06:06:47;9.18;;;5.35;;
5754;SDS011;2902;42.130;24.732;2022-08-19T06:09:16;10.15;;;6.50;;
5754;SDS011;2902;42.130;24.732;2022-08-19T06:11:44;8.63;;;5.70;;
5754;SDS011;2902;42.130;24.732;2022-08-19T06:14:13;7.38;;;5.88;;
5754;SDS011;2902;42.130;24.732;2022-08-19T06:16:46;15.25;;;6.00;;
5754;SDS011;2902;42.130;24.732;2022-08-19T06:19:14;7.68;;;6.00;;
5754;SDS011;2902;42.130;24.732;2022-08-19T06:21:43;6.47;;;5.13;;
5754;SDS011;2902;42.130;24.732;2022-08-19T06:24:13;12.95;;;5.65;;
5754;SDS011;2902;42.130;24.732;2022-08-19T06:26:46;6.10;;;5.50;;
5754;SDS011;2902;42.130;24.732;2022-08-19T06:29:15;8.63;;;6.35;;
5754;SDS011;2902;42.130;24.732;2022-08-19T06:31:43;6.10;;;5.50;;
5754;SDS011;2902;42.130;24.732;2022-08-19T06:34:11;10.38;;;5.72;;
5754;SDS011;2902;42.130;24.732;2022-08-19T06:36:39;6.90;;;5.38;;
5754;SDS011;2902;42.130;24.732;2022-08-19T06:39:09;8.77;;;5.43;;
5754;SDS011;2902;42.130;24.732;2022-08-19T06:41:41;28.80;;;6.72;;
5754;SDS011;2902;42.130;24.732;2022-08-19T06:44:11;8.48;;;5.50;;
5754;SDS011;2902;42.130;24.732;2022-08-19T06:46:39;7.35;;;5.35;;
5754;SDS011;2902;42.130;24.732;2022-08-19T06:49:07;7.28;;;6.10;;
5754;SDS011;2902;42.130;24.732;2022-08-19T06:51:38;6.50;;;5.65;;
5754;SDS011;2902;42.130;24.732;2022-08-19T06:54:06;10.75;;;5.75;;
5754;SDS011;2902;42.130;24.732;2022-08-19T06:56:33;8.63;;;6.03;;
5754;SDS011;2902;42.130;24.732;2022-08-19T06:59:00;7.88;;;5.10;;
5754;SDS011;2902;42.130;24.732;2022-08-19T07:01:29;10.73;;;5.53;;
5754;SDS011;2902;42.130;24.732;2022-08-19T07:03:55;14.57;;;6.40;;
5754;SDS011;2902;42.130;24.732;2022-08-19T07:06:22;8.98;;;6.15;;
5754;SDS011;2902;42.130;24.732;2022-08-19T07:08:49;8.73;;;5.82;;
5754;SDS011;2902;42.130;24.732;2022-08-19T07:11:17;10.93;;;5.78;;
5754;SDS011;2902;42.130;24.732;2022-08-19T07:13:45;9.65;;;5.57;;
5754;SDS011;2902;42.130;24.732;2022-08-19T07:16:15;8.05;;;5.20;;
5754;SDS011;2902;42.130;24.732;2022-08-19T07:18:45;6.50;;;5.85;;
5754;SDS011;2902;42.130;24.732;2022-08-19T07:21:14;39.05;;;8.02;;
5754;SDS011;2902;42.130;24.732;2022-08-19T07:23:42;12.35;;;6.18;;
5754;SDS011;2902;42.130;24.732;2022-08-19T07:26:11;10.48;;;5.75;;
5754;SDS011;2902;42.130;24.732;2022-08-19T07:28:49;6.80;;;5.00;;
5754;SDS011;2902;42.130;24.732;2022-08-19T07:31:18;5.28;;;4.60;;
5754;SDS011;2902;42.130;24.732;2022-08-19T07:33:48;6.68;;;5.35;;
5754;SDS011;2902;42.130;24.732;2022-08-19T07:36:17;5.80;;;5.03;;
5754;SDS011;2902;42.130;24.732;2022-08-19T07:38:46;8.55;;;5.95;;
5754;SDS011;2902;42.130;24.732;2022-08-19T07:41:17;5.13;;;4.70;;
5754;SDS011;2902;42.130;24.732;2022-08-19T07:43:47;8.00;;;4.95;;
5754;SDS011;2902;42.130;24.732;2022-08-19T07:46:15;8.27;;;4.90;;
5754;SDS011;2902;42.130;24.732;2022-08-19T07:48:43;5.72;;;4.68;;
5754;SDS011;2902;42.130;24.732;2022-08-19T07:51:14;7.85;;;4.80;;
5754;SDS011;2902;42.130;24.732;2022-08-19T07:53:42;7.90;;;4.45;;
5754;SDS011;2902;42.130;24.732;2022-08-19T07:56:10;5.90;;;4.65;;
5754;SDS011;2902;42.130;24.732;2022-08-19T07:58:41;7.88;;;4.93;;
5754;SDS011;2902;42.130;24.732;2022-08-19T08:01:10;4.93;;;4.63;;
5754;SDS011;2902;42.130;24.732;2022-08-19T08:03:39;4.88;;;4.55;;
5754;SDS011;2902;42.130;24.732;2022-08-19T08:06:25;5.32;;;5.03;;
5754;SDS011;2902;42.130;24.732;2022-08-19T08:09:10;6.35;;;4.70;;
5754;SDS011;2902;42.130;24.732;2022-08-19T08:11:42;6.75;;;5.50;;
5754;SDS011;2902;42.130;24.732;2022-08-19T08:14:16;8.27;;;5.18;;
5754;SDS011;2902;42.130;24.732;2022-08-19T08:16:45;6.95;;;5.15;;
5754;SDS011;2902;42.130;24.732;2022-08-19T08:19:12;5.40;;;4.90;;
5754;SDS011;2902;42.130;24.732;2022-08-19T08:21:42;5.45;;;5.00;;
5754;SDS011;2902;42.130;24.732;2022-08-19T08:24:09;5.10;;;4.70;;
5754;SDS011;2902;42.130;24.732;2022-08-19T08:26:37;6.15;;;4.80;;
5754;SDS011;2902;42.130;24.732;2022-08-19T08:29:04;24.42;;;6.03;;
5754;SDS011;2902;42.130;24.732;2022-08-19T08:31:32;6.15;;;4.95;;
5754;SDS011;2902;42.130;24.732;2022-08-19T08:33:59;5.70;;;4.88;;
5754;SDS011;2902;42.130;24.732;2022-08-19T08:36:26;6.38;;;4.97;;
5754;SDS011;2902;42.130;24.732;2022-08-19T08:38:54;12.60;;;5.88;;
5754;SDS011;2902;42.130;24.732;2022-08-19T08:41:23;8.98;;;4.97;;
5754;SDS011;2902;42.130;24.732;2022-08-19T08:43:57;7.80;;;5.00;;
5754;SDS011;2902;42.130;24.732;2022-08-19T08:46:26;8.00;;;5.00;;
5754;SDS011;2902;42.130;24.732;2022-08-19T08:49:02;5.90;;;5.30;;
5754;SDS011;2902;42.130;24.732;2022-08-19T08:51:35;12.20;;;5.03;;
5754;SDS011;2902;42.130;24.732;2022-08-19T08:54:08;5.47;;;5.07;;
5754;SDS011;2902;42.130;24.732;2022-08-19T08:56:38;11.77;;;5.18;;
5754;SDS011;2902;42.130;24.732;2022-08-19T08:59:06;25.27;;;6.20;;
5754;SDS011;2902;42.130;24.732;2022-08-19T09:01:38;6.75;;;4.68;;
5754;SDS011;2902;42.130;24.732;2022-08-19T09:04:05;26.40;;;5.78;;
5754;SDS011;2902;42.130;24.732;2022-08-19T09:06:36;8.15;;;4.50;;
5754;SDS011;2902;42.130;24.732;2022-08-19T09:09:12;11.98;;;5.25;;
5754;SDS011;2902;42.130;24.732;2022-08-19T09:11:52;8.70;;;4.40;;
5754;SDS011;2902;42.130;24.732;2022-08-19T09:14:32;4.47;;;4.07;;
5754;SDS011;2902;42.130;24.732;2022-08-19T09:17:03;7.45;;;4.75;;
5754;SDS011;2902;42.130;24.732;2022-08-19T09:19:33;4.68;;;4.28;;
5754;SDS011;2902;42.130;24.732;2022-08-19T09:22:00;4.55;;;4.18;;
5754;SDS011;2902;42.130;24.732;2022-08-19T09:24:28;4.32;;;4.00;;
5754;SDS011;2902;42.130;24.732;2022-08-19T09:26:55;4.85;;;3.58;;
5754;SDS011;2902;42.130;24.732;2022-08-19T09:29:22;6.80;;;4.03;;
5754;SDS011;2902;42.130;24.732;2022-08-19T09:31:49;4.93;;;4.45;;
5754;SDS011;2902;42.130;24.732;2022-08-19T09:34:16;4.40;;;3.83;;
5754;SDS011;2902;42.130;24.732;2022-08-19T09:36:44;4.80;;;3.80;;
5754;SDS011;2902;42.130;24.732;2022-08-19T09:39:11;5.35;;;4.05;;
5754;SDS011;2902;42.130;24.732;2022-08-19T09:41:39;4.75;;;4.38;;
5754;SDS011;2902;42.130;24.732;2022-08-19T09:44:06;4.70;;;4.50;;
5754;SDS011;2902;42.130;24.732;2022-08-19T09:46:33;4.85;;;4.45;;
5754;SDS011;2902;42.130;24.732;2022-08-19T09:49:01;4.78;;;4.47;;
5754;SDS011;2902;42.130;24.732;2022-08-19T09:51:30;4.85;;;4.05;;
5754;SDS011;2902;42.130;24.732;2022-08-19T09:53:58;4.15;;;3.78;;
5754;SDS011;2902;42.130;24.732;2022-08-19T09:56:26;4.80;;;3.90;;
5754;SDS011;2902;42.130;24.732;2022-08-19T09:58:56;7.50;;;4.60;;
5754;SDS011;2902;42.130;24.732;2022-08-19T10:01:25;5.05;;;4.05;;
5754;SDS011;2902;42.130;24.732;2022-08-19T10:03:54;6.70;;;4.13;;
5754;SDS011;2902;42.130;24.732;2022-08-19T10:06:22;5.53;;;4.30;;
5754;SDS011;2902;42.130;24.732;2022-08-19T10:08:51;12.43;;;4.13;;
5754;SDS011;2902;42.130;24.732;2022-08-19T10:11:19;5.80;;;4.07;;
5754;SDS011;2902;42.130;24.732;2022-08-19T10:13:46;18.95;;;7.07;;
5754;SDS011;2902;42.130;24.732;2022-08-19T10:16:15;8.95;;;4.68;;
5754;SDS011;2902;42.130;24.732;2022-08-19T10:18:45;4.55;;;4.15;;
5754;SDS011;2902;42.130;24.732;2022-08-19T10:21:13;5.80;;;4.15;;
5754;SDS011;2902;42.130;24.732;2022-08-19T10:23:43;7.22;;;3.97;;
5754;SDS011;2902;42.130;24.732;2022-08-19T10:26:16;6.07;;;4.18;;
5754;SDS011;2902;42.130;24.732;2022-08-19T10:28:44;4.68;;;4.28;;
5754;SDS011;2902;42.130;24.732;2022-08-19T10:31:12;5.85;;;4.60;;
5754;SDS011;2902;42.130;24.732;2022-08-19T10:33:43;4.95;;;4.53;;
5754;SDS011;2902;42.130;24.732;2022-08-19T10:36:11;4.22;;;3.92;;
5754;SDS011;2902;42.130;24.732;2022-08-19T10:38:42;4.30;;;4.03;;
5754;SDS011;2902;42.130;24.732;2022-08-19T10:41:11;5.50;;;4.35;;
5754;SDS011;2902;42.130;24.732;2022-08-19T10:43:39;5.90;;;4.35;;
5754;SDS011;2902;42.130;24.732;2022-08-19T10:46:07;4.78;;;4.38;;
5754;SDS011;2902;42.130;24.732;2022-08-19T10:48:35;4.07;;;3.72;;
5754;SDS011;2902;42.130;24.732;2022-08-19T10:51:04;4.13;;;3.67;;
5754;SDS011;2902;42.130;24.732;2022-08-19T10:53:48;5.97;;;4.45;;
5754;SDS011;2902;42.130;24.732;2022-08-19T10:56:15;4.10;;;3.70;;
5754;SDS011;2902;42.130;24.732;2022-08-19T10:59:00;6.78;;;4.32;;
5754;SDS011;2902;42.130;24.732;2022-08-19T11:01:28;4.70;;;4.18;;
5754;SDS011;2902;42.130;24.732;2022-08-19T11:03:58;4.95;;;4.10;;
5754;SDS011;2902;42.130;24.732;2022-08-19T11:06:27;5.10;;;4.30;;
5754;SDS011;2902;42.130;24.732;2022-08-19T11:08:55;4.32;;;3.90;;
5754;SDS011;2902;42.130;24.732;2022-08-19T11:11:22;4.82;;;4.43;;
5754;SDS011;2902;42.130;24.732;2022-08-19T11:13:49;4.75;;;4.32;;
5754;SDS011;2902;42.130;24.732;2022-08-19T11:16:16;7.97;;;4.10;;
5754;SDS011;2902;42.130;24.732;2022-08-19T11:18:45;4.57;;;4.15;;
5754;SDS011;2902;42.130;24.732;2022-08-19T11:21:15;5.57;;;4.55;;
5754;SDS011;2902;42.130;24.732;2022-08-19T11:23:46;4.78;;;4.18;;
5754;SDS011;2902;42.130;24.732;2022-08-19T11:26:14;9.88;;;3.85;;
5754;SDS011;2902;42.130;24.732;2022-08-19T11:28:42;5.57;;;4.43;;
5754;SDS011;2902;42.130;24.732;2022-08-19T11:31:10;6.63;;;3.72;;
5754;SDS011;2902;42.130;24.732;2022-08-19T11:33:37;5.00;;;4.50;;
5754;SDS011;2902;42.130;24.732;2022-08-19T11:36:04;6.43;;;4.10;;
5754;SDS011;2902;42.130;24.732;2022-08-19T11:38:32;3.90;;;3.60;;
5754;SDS011;2902;42.130;24.732;2022-08-19T11:41:02;4.90;;;3.70;;
5754;SDS011;2902;42.130;24.732;2022-08-19T11:43:31;4.00;;;3.70;;
5754;SDS011;2902;42.130;24.732;2022-08-19T11:45:59;4.95;;;3.50;;
5754;SDS011;2902;42.130;24.732;2022-08-19T11:48:29;19.10;;;4.47;;
5754;SDS011;2902;42.130;24.732;2022-08-19T11:50:56;5.88;;;3.80;;
5754;SDS011;2902;42.130;24.732;2022-08-19T11:53:22;15.43;;;4.50;;
5754;SDS011;2902;42.130;24.732;2022-08-19T11:55:50;4.38;;;4.07;;
5754;SDS011;2902;42.130;24.732;2022-08-19T11:58:22;7.05;;;4.05;;
5754;SDS011;2902;42.130;24.732;2022-08-19T12:00:49;3.80;;;3.28;;
5754;SDS011;2902;42.130;24.732;2022-08-19T12:03:17;6.55;;;3.60;;
5754;SDS011;2902;42.130;24.732;2022-08-19T12:05:44;4.90;;;3.90;;
5754;SDS011;2902;42.130;24.732;2022-08-19T12:08:11;4.75;;;3.92;;
5754;SDS011;2902;42.130;24.732;2022-08-19T12:10:39;3.90;;;3.70;;
5754;SDS011;2902;42.130;24.732;2022-08-19T12:13:07;4.57;;;4.20;;
5754;SDS011;2902;42.130;24.732;2022-08-19T12:15:36;5.32;;;4.13;;
5754;SDS011;2902;42.130;24.732;2022-08-19T12:18:05;4.88;;;3.72;;
5754;SDS011;2902;42.130;24.732;2022-08-19T12:20:33;5.90;;;3.38;;
5754;SDS011;2902;42.130;24.732;2022-08-19T12:23:01;4.22;;;3.70;;
5754;SDS011;2902;42.130;24.732;2022-08-19T12:25:28;5.28;;;3.80;;
5754;SDS011;2902;42.130;24.732;2022-08-19T12:27:55;4.30;;;4.00;;
5754;SDS011;2902;42.130;24.732;2022-08-19T12:30:22;3.97;;;3.67;;
5754;SDS011;2902;42.130;24.732;2022-08-19T12:32:51;4.28;;;3.97;;
5754;SDS011;2902;42.130;24.732;2022-08-19T12:35:18;4.88;;;4.22;;
5754;SDS011;2902;42.130;24.732;2022-08-19T12:37:46;4.25;;;3.95;;
5754;SDS011;2902;42.130;24.732;2022-08-19T12:40:14;10.18;;;4.28;;
5754;SDS011;2902;42.130;24.732;2022-08-19T12:42:42;7.28;;;4.70;;
5754;SDS011;2902;42.130;24.732;2022-08-19T12:45:09;4.00;;;3.40;;
5754;SDS011;2902;42.130;24.732;2022-08-19T12:47:37;3.97;;;3.67;;
5754;SDS011;2902;42.130;24.732;2022-08-19T12:50:06;7.82;;;4.10;;
5754;SDS011;2902;42.130;24.732;2022-08-19T12:52:34;4.20;;;3.80;;
5754;SDS011;2902;42.130;24.732;2022-08-19T12:55:03;4.30;;;3.78;;
5754;SDS011;2902;42.130;24.732;2022-08-19T12:57:31;4.32;;;3.67;;
5754;SDS011;2902;42.130;24.732;2022-08-19T13:00:03;8.10;;;4.03;;
5754;SDS011;2902;42.130;24.732;2022-08-19T13:02:35;4.20;;;3.92;;
5754;SDS011;2902;42.130;24.732;2022-08-19T13:05:02;4.20;;;3.78;;
5754;SDS011;2902;42.130;24.732;2022-08-19T13:07:32;4.07;;;3.80;;
5754;SDS011;2902;42.130;24.732;2022-08-19T13:09:59;3.90;;;3.60;;
5754;SDS011;2902;42.130;24.732;2022-08-19T13:12:27;6.35;;;4.03;;
5754;SDS011;2902;42.130;24.732;2022-08-19T13:14:54;4.97;;;3.72;;
5754;SDS011;2902;42.130;24.732;2022-08-19T13:17:21;3.80;;;3.60;;
5754;SDS011;2902;42.130;24.732;2022-08-19T13:19:48;4.15;;;3.83;;
5754;SDS011;2902;42.130;24.732;2022-08-19T13:22:15;5.60;;;4.25;;
5754;SDS011;2902;42.130;24.732;2022-08-19T13:24:44;7.07;;;4.32;;
5754;SDS011;2902;42.130;24.732;2022-08-19T13:27:11;4.30;;;3.90;;
5754;SDS011;2902;42.130;24.732;2022-08-19T13:29:39;4.72;;;4.03;;
5754;SDS011;2902;42.130;24.732;2022-08-19T13:32:23;4.82;;;4.20;;
5754;SDS011;2902;42.130;24.732;2022-08-19T13:35:07;5.28;;;4.10;;
5754;SDS011;2902;42.130;24.732;2022-08-19T13:37:34;4.90;;;4.03;;
5754;SDS011;2902;42.130;24.732;2022-08-19T13:40:09;4.68;;;4.00;;
5754;SDS011;2902;42.130;24.732;2022-08-19T13:42:40;6.00;;;4.05;;
5754;SDS011;2902;42.130;24.732;2022-08-19T13:45:08;4.88;;;4.53;;
5754;SDS011;2902;42.130;24.732;2022-08-19T13:47:35;4.05;;;3.75;;
5754;SDS011;2902;42.130;24.732;2022-08-19T13:50:08;4.50;;;4.10;;
5754;SDS011;2902;42.130;24.732;2022-08-19T13:52:35;4.10;;;3.80;;
5754;SDS011;2902;42.130;24.732;2022-08-19T13:55:02;4.35;;;4.10;;
5754;SDS011;2902;42.130;24.732;2022-08-19T13:57:31;6.03;;;3.78;;
5754;SDS011;2902;42.130;24.732;2022-08-19T13:59:58;4.35;;;4.00;;
5754;SDS011;2902;42.130;24.732;2022-08-19T14:02:26;6.22;;;4.22;;
5754;SDS011;2902;42.130;24.732;2022-08-19T14:04:52;5.53;;;4.43;;
5754;SDS011;2902;42.130;24.732;2022-08-19T14:07:19;7.38;;;3.85;;
5754;SDS011;2902;42.130;24.732;2022-08-19T14:09:48;7.60;;;4.22;;
5754;SDS011;2902;42.130;24.732;2022-08-19T14:12:17;5.05;;;3.70;;
5754;SDS011;2902;42.130;24.732;2022-08-19T14:14:46;4.50;;;4.15;;
5754;SDS011;2902;42.130;24.732;2022-08-19T14:17:13;4.30;;;3.95;;
5754;SDS011;2902;42.130;24.732;2022-08-19T14:19:40;5.22;;;3.60;;
5754;SDS011;2902;42.130;24.732;2022-08-19T14:22:07;5.32;;;3.65;;
5754;SDS011;2902;42.130;24.732;2022-08-19T14:24:34;6.15;;;3.60;;
5754;SDS011;2902;42.130;24.732;2022-08-19T14:27:04;8.13;;;4.05;;
5754;SDS011;2902;42.130;24.732;2022-08-19T14:29:31;4.57;;;3.70;;
5754;SDS011;2902;42.130;24.732;2022-08-19T14:31:59;4.70;;;4.35;;
5754;SDS011;2902;42.130;24.732;2022-08-19T14:34:26;4.28;;;3.95;;
5754;SDS011;2902;42.130;24.732;2022-08-19T14:36:53;9.15;;;4.55;;
5754;SDS011;2902;42.130;24.732;2022-08-19T14:39:19;5.35;;;3.70;;
5754;SDS011;2902;42.130;24.732;2022-08-19T14:41:46;4.13;;;3.85;;
5754;SDS011;2902;42.130;24.732;2022-08-19T14:44:13;4.00;;;3.60;;
5754;SDS011;2902;42.130;24.732;2022-08-19T14:46:39;5.53;;;4.15;;
5754;SDS011;2902;42.130;24.732;2022-08-19T14:49:07;4.90;;;4.25;;
5754;SDS011;2902;42.130;24.732;2022-08-19T14:51:34;4.75;;;4.40;;
5754;SDS011;2902;42.130;24.732;2022-08-19T14:54:01;8.55;;;4.45;;
5754;SDS011;2902;42.130;24.732;2022-08-19T14:56:28;5.65;;;4.68;;
5754;SDS011;2902;42.130;24.732;2022-08-19T14:58:56;5.95;;;4.10;;
5754;SDS011;2902;42.130;24.732;2022-08-19T15:01:26;4.32;;;3.70;;
5754;SDS011;2902;42.130;24.732;2022-08-19T15:03:53;10.60;;;4.55;;
5754;SDS011;2902;42.130;24.732;2022-08-19T15:06:22;4.40;;;4.10;;
5754;SDS011;2902;42.130;24.732;2022-08-19T15:08:49;5.75;;;4.07;;